Time;durP1;ratioP1;P1;durP2;ratioP2;P2;SDS_P1;SDS_P2;PMS_P1;PMS_P2;Temp;Humidity;BMP_temperature;BMP_pressure;BME280_temperature;BME280_humidity;BME280_pressure;Samples;Min_cycle;Max_cycle;Signal;HPM_P1;HPM_P2
2021/06/17 02:47:25;;;;;;;6.38;4.10;;;16.70;99.90;;;;;;5002762;28;19936;-92
2021/06/17 02:50:56;;;;;;;;;;;;;;;;;;;;;
2021/06/17 02:57:33;;;;;;;5.30;3.70;;;16.90;99.90;;;;;;4752571;30;20074;-93
2021/06/17 04:52:27;;;;;;;;;;;;;;;;;;;;;
2021/06/17 07:07:30;;;;;;;7.22;2.25;;;26.70;62.60;;;;;;5991836;23;20196;-92
2021/06/17 07:10:14;;;;;;;;;;;;;;;;;;;;;
2021/06/17 07:13:00;;;;;;;5.70;2.30;;;26.50;60.10;;;;;;6083433;23;20106;-93
2021/06/17 07:16:00;;;;;;;4.65;2.40;;;26.70;60.80;;;;;;6058885;23;20019;-93
2021/06/17 07:21:18;;;;;;;3.08;2.45;;;27.00;58.10;;;;;;6038589;23;20023;-86
2021/06/17 07:24:57;;;;;;;;;;;;;;;;;;;;;
2021/06/17 07:28:05;;;;;;;3.63;2.10;;;27.50;57.50;;;;;;5927937;24;20020;-92
2021/06/17 07:30:55;;;;;;;3.53;2.20;;;27.70;56.40;;;;;;5852120;24;20032;-94
2021/06/17 07:36:17;;;;;;;7.00;2.20;;;27.80;57.60;;;;;;5826723;24;20014;-93
2021/06/17 07:39:09;;;;;;;4.25;2.10;;;27.90;56.20;;;;;;5856862;24;20075;-93
2021/06/17 07:42:31;;;;;;;7.53;2.10;;;28.10;53.20;;;;;;5796279;24;20123;-95
2021/06/17 08:58:52;;;;;;;;;;;;;;;;;;;;;
2021/06/17 09:05:36;;;;;;;6.15;2.05;;;35.00;41.00;;;;;;5964674;24;20073;-92
2021/06/17 09:11:17;;;;;;;3.33;2.42;;;35.80;39.40;;;;;;5932845;24;20031;-93
2021/06/17 09:17:27;;;;;;;4.00;2.08;;;33.20;39.80;;;;;;5839876;24;20010;-93
2021/06/17 09:20:11;;;;;;;4.65;1.83;;;32.80;41.70;;;;;;5825934;24;20171;-93
2021/06/17 10:11:24;;;;;;;2.97;1.40;;;38.80;32.20;;;;;;6023746;23;20124;-92
2021/06/17 10:17:03;;;;;;;;;;;;;;;;;;;;;
2021/06/17 10:19:55;;;;;;;;;;;;;;;;;;;;;
2021/06/17 10:23:21;;;;;;;;;;;40.70;28.00;;;;;;5880725;24;20108;-93
2021/06/17 10:29:55;;;;;;;2.63;1.40;;;41.10;26.00;;;;;;6043260;23;20274;-93
2021/06/17 10:35:30;;;;;;;3.97;1.70;;;41.30;26.70;;;;;;6033446;23;20027;-92
2021/06/17 10:38:06;;;;;;;3.42;1.70;;;40.60;26.30;;;;;;6037458;23;20439;-92
2021/06/17 10:40:43;;;;;;;6.82;1.80;;;40.00;27.70;;;;;;6037820;23;20038;-90
2021/06/17 10:43:28;;;;;;;4.38;1.90;;;38.50;28.80;;;;;;6037138;23;20031;-91
2021/06/17 10:45:58;;;;;;;5.00;1.88;;;37.80;29.20;;;;;;6035938;23;20372;-92
2021/06/17 10:48:42;;;;;;;2.08;1.40;;;38.10;28.80;;;;;;6037660;23;20019;-92
2021/06/17 10:51:10;;;;;;;4.82;1.80;;;38.70;33.70;;;;;;6038001;23;20479;-91
2021/06/17 10:53:39;;;;;;;9.23;2.00;;;39.60;31.00;;;;;;6035727;23;20023;-92
2021/06/17 10:56:26;;;;;;;1.98;1.25;;;40.30;31.30;;;;;;6039162;23;20023;-94
2021/06/17 10:58:57;;;;;;;6.38;1.60;;;40.80;28.50;;;;;;6039646;23;20207;-92
2021/06/17 11:01:25;;;;;;;1.60;1.50;;;40.90;28.00;;;;;;6040044;23;20507;-92
2021/06/17 11:04:07;;;;;;;1.85;1.50;;;41.00;28.60;;;;;;6037568;23;20090;-94
2021/06/17 11:06:52;;;;;;;2.90;1.88;;;40.90;28.50;;;;;;6037917;23;20026;-91
2021/06/17 11:09:57;;;;;;;3.17;1.95;;;42.00;26.20;;;;;;6038017;23;20030;-94
2021/06/17 11:12:25;;;;;;;5.15;1.75;;;42.30;27.70;;;;;;6037711;23;20045;-94
2021/06/17 11:15:00;;;;;;;3.10;1.63;;;42.10;27.40;;;;;;6037307;23;20038;-92
2021/06/17 11:17:31;;;;;;;1.63;1.52;;;41.70;27.20;;;;;;6038388;23;20423;-92
2021/06/17 11:20:08;;;;;;;2.25;1.63;;;41.90;26.30;;;;;;6038274;23;20069;-91
2021/06/17 11:22:59;;;;;;;3.08;1.75;;;41.30;26.80;;;;;;6037849;23;20106;-90
2021/06/17 11:25:54;;;;;;;2.88;1.88;;;40.60;26.80;;;;;;6038577;23;20027;-92
2021/06/17 11:28:48;;;;;;;2.90;2.10;;;40.00;28.20;;;;;;6038086;23;20057;-92
2021/06/17 11:34:41;;;;;;;1.63;1.35;;;40.20;29.70;;;;;;6062692;23;20041;-91
2021/06/17 11:37:13;;;;;;;1.95;1.80;;;40.60;29.10;;;;;;6044042;23;20019;-90
2021/06/17 11:39:41;;;;;;;4.43;2.17;;;40.80;28.10;;;;;;6068742;23;20071;-92
2021/06/17 11:42:27;;;;;;;4.40;2.30;;;40.90;29.60;;;;;;6066917;23;20027;-92
2021/06/17 11:45:31;;;;;;;2.25;2.05;;;40.90;28.00;;;;;;6066019;23;20019;-93
2021/06/17 11:57:02;;;;;;;4.72;1.88;;;43.00;26.90;;;;;;6042086;23;20083;-92
2021/06/17 12:04:16;;;;;;;;;;;;;;;;;;;;;
2021/06/17 12:10:58;;;;;;;;;;;;;;;;;;;;;
2021/06/17 12:13:52;;;;;;;2.47;1.90;;;42.40;27.80;;;;;;6030258;23;19922;-89
2021/06/17 12:16:22;;;;;;;3.50;1.80;;;42.20;26.80;;;;;;6041521;23;20395;-93
2021/06/17 12:19:00;;;;;;;4.93;2.47;;;41.50;28.00;;;;;;6044921;23;20094;-92
2021/06/17 12:21:41;;;;;;;3.53;1.92;;;41.30;28.20;;;;;;5966804;23;20023;-94
2021/06/17 12:24:14;;;;;;;2.13;1.70;;;41.30;27.10;;;;;;6013438;23;20031;-92
2021/06/17 12:26:43;;;;;;;4.95;2.20;;;40.80;27.30;;;;;;6036667;23;20027;-93
2021/06/17 12:29:16;;;;;;;3.35;2.03;;;41.10;28.50;;;;;;6012392;23;20019;-92
2021/06/17 12:31:55;;;;;;;2.40;1.90;;;41.70;27.00;;;;;;6012741;23;20360;-93
2021/06/17 12:34:22;;;;;;;5.72;2.63;;;41.60;26.80;;;;;;6012078;23;20015;-92
2021/06/17 12:37:19;;;;;;;3.13;1.95;;;40.90;29.30;;;;;;6019228;23;20090;-93
2021/06/17 12:39:57;;;;;;;5.93;2.33;;;40.80;29.80;;;;;;5907955;24;20029;-92
2021/06/17 12:42:24;;;;;;;3.58;2.28;;;41.20;29.40;;;;;;6049021;23;20019;-93
2021/06/17 12:45:04;;;;;;;;;;;;;;;;;;;;;
2021/06/17 12:54:30;;;;;;;9.80;2.15;;;42.80;28.30;;;;;;5950812;24;20033;-92
2021/06/17 12:57:20;;;;;;;3.67;2.22;;;42.40;28.50;;;;;;6016545;23;20023;-92
2021/06/17 13:00:34;;;;;;;4.88;1.90;;;42.40;26.80;;;;;;6037193;23;20019;-93
2021/06/17 13:03:04;;;;;;;3.30;1.88;;;42.80;28.50;;;;;;6012779;23;20399;-93
2021/06/17 13:05:42;;;;;;;3.25;1.98;;;43.00;27.60;;;;;;6042129;23;20087;-91
2021/06/17 13:08:12;;;;;;;6.07;2.00;;;42.70;28.20;;;;;;6044276;23;20043;-92
2021/06/17 13:10:45;;;;;;;3.15;2.13;;;42.50;27.20;;;;;;6017888;23;20019;-92
2021/06/17 13:13:14;;;;;;;3.25;1.83;;;42.30;26.00;;;;;;6046471;23;20032;-92
2021/06/17 13:16:35;;;;;;;3.00;1.88;;;42.60;25.70;;;;;;6051827;23;20071;-95
2021/06/17 13:19:53;;;;;;;12.75;2.33;;;42.90;26.20;;;;;;6042559;23;20035;-95
2021/06/17 13:26:32;;;;;;;3.85;1.92;;;42.80;25.50;;;;;;5949344;23;20041;-95
2021/06/17 13:33:43;;;;;;;;;;;;;;;;;;;;;
2021/06/17 13:36:35;;;;;;;4.90;2.10;;;43.40;26.50;;;;;;5847543;24;20109;-89
2021/06/17 13:39:38;;;;;;;;;;;;;;;;;;;;;
2021/06/17 13:42:23;;;;;;;3.45;2.17;;;41.90;27.90;;;;;;5831960;24;20029;-93
2021/06/17 13:45:24;;;;;;;5.63;2.15;;;41.70;27.10;;;;;;5921969;24;20067;-92
2021/06/17 13:47:55;;;;;;;3.80;2.40;;;42.00;27.10;;;;;;5924409;24;20021;-91
2021/06/17 13:50:35;;;;;;;;;;;;;;;;;;;;;
2021/06/17 13:56:39;;;;;;;7.28;2.33;;;42.00;27.70;;;;;;5930973;24;20102;-92
2021/06/17 13:59:39;;;;;;;4.07;2.33;;;41.50;28.30;;;;;;5947833;24;20036;-92
2021/06/17 14:02:15;;;;;;;3.95;2.33;;;41.10;28.90;;;;;;5936104;24;20028;-92
2021/06/17 14:04:47;;;;;;;4.95;2.50;;;41.60;29.00;;;;;;5909085;24;20059;-92
2021/06/17 14:07:19;;;;;;;6.72;2.30;;;42.40;27.40;;;;;;5952191;24;20128;-92
2021/06/17 14:09:55;;;;;;;8.48;2.42;;;42.50;27.80;;;;;;5983088;23;20031;-93
2021/06/17 14:12:55;;;;;;;5.05;2.45;;;43.00;26.20;;;;;;6045375;23;20019;-94
2021/06/17 14:22:57;;;;;;;3.47;2.08;;;41.50;28.30;;;;;;6046401;23;20027;-93
2021/06/17 14:25:24;;;;;;;4.75;2.20;;;41.30;28.90;;;;;;6039063;23;20055;-92
2021/06/17 14:30:34;;;;;;;4.85;2.45;;;41.30;28.50;;;;;;6058593;23;20032;-94
2021/06/17 14:33:18;;;;;;;;;;;;;;;;;;;;;
2021/06/17 14:36:12;;;;;;;7.03;2.53;;;41.30;28.90;;;;;;6100752;23;20076;-94
2021/06/17 14:38:53;;;;;;;8.05;2.67;;;40.80;28.40;;;;;;6063972;23;20040;-93
2021/06/17 14:41:27;;;;;;;5.60;2.67;;;40.40;29.30;;;;;;6069487;23;20027;-94
2021/06/17 14:43:55;;;;;;;2.65;2.15;;;40.20;29.10;;;;;;6071777;23;20033;-94
2021/06/17 14:46:24;;;;;;;3.50;2.38;;;40.60;28.90;;;;;;6093968;23;20420;-89
2021/06/17 14:48:51;;;;;;;4.80;2.20;;;40.90;28.20;;;;;;6093177;23;20026;-90
2021/06/17 14:51:18;;;;;;;3.50;2.28;;;40.90;27.60;;;;;;6093923;23;20042;-89
2021/06/17 14:53:45;;;;;;;7.85;2.75;;;40.60;27.80;;;;;;6094274;23;20025;-91
2021/06/17 14:56:12;;;;;;;3.47;2.30;;;40.40;29.20;;;;;;6093807;23;20172;-93
2021/06/17 14:58:39;;;;;;;4.50;2.20;;;39.80;28.50;;;;;;6068312;23;20453;-90
2021/06/17 15:01:08;;;;;;;5.22;2.35;;;39.90;30.30;;;;;;6095085;23;20097;-92
2021/06/17 15:03:35;;;;;;;7.45;2.40;;;40.10;28.80;;;;;;6093979;23;20483;-91
2021/06/17 15:06:09;;;;;;;3.45;2.30;;;40.30;27.90;;;;;;6093807;23;20026;-89
2021/06/17 15:08:56;;;;;;;3.17;2.25;;;39.90;28.90;;;;;;6065329;23;20022;-92
2021/06/17 15:11:26;;;;;;;6.50;2.72;;;40.00;28.00;;;;;;6068936;23;20026;-91
2021/06/17 15:14:00;;;;;;;6.53;2.53;;;39.60;28.60;;;;;;6067436;23;20019;-94
2021/06/17 15:16:31;;;;;;;6.47;2.00;;;39.50;28.80;;;;;;6093042;23;20045;-92
2021/06/17 15:18:59;;;;;;;2.92;2.30;;;39.20;28.90;;;;;;6093097;23;20421;-89
2021/06/17 15:21:26;;;;;;;8.52;2.60;;;39.00;29.10;;;;;;6093336;23;20053;-90
2021/06/17 15:23:54;;;;;;;5.15;2.63;;;38.40;30.30;;;;;;6069410;23;20038;-90
2021/06/17 15:26:26;;;;;;;8.07;2.75;;;37.70;31.20;;;;;;6097973;23;20026;-91
2021/06/17 15:28:56;;;;;;;5.57;2.38;;;36.90;32.20;;;;;;6103417;23;20022;-91
2021/06/17 15:31:24;;;;;;;5.93;2.63;;;36.10;33.10;;;;;;6079278;23;20029;-90
2021/06/17 15:34:19;;;;;;;5.03;2.42;;;35.50;34.20;;;;;;6078283;23;20034;-92
2021/06/17 15:36:51;;;;;;;6.10;2.75;;;34.90;35.30;;;;;;6071485;23;20327;-93
2021/06/17 15:39:22;;;;;;;3.97;2.45;;;34.30;36.40;;;;;;6069176;23;20403;-88
2021/06/17 15:41:51;;;;;;;9.90;2.85;;;33.90;35.90;;;;;;6069441;23;20066;-90
2021/06/17 15:44:30;;;;;;;4.75;3.17;;;33.40;37.60;;;;;;6070716;23;20093;-91
2021/06/17 15:46:59;;;;;;;5.90;2.80;;;33.10;38.70;;;;;;6045934;23;20131;-89
2021/06/17 15:49:26;;;;;;;4.25;2.60;;;32.80;38.90;;;;;;6068041;23;20044;-92
2021/06/17 15:52:00;;;;;;;7.97;2.95;;;32.60;38.70;;;;;;6093932;23;20065;-92
2021/06/17 15:54:35;;;;;;;5.15;2.67;;;32.50;38.60;;;;;;6096128;23;20563;-94
2021/06/17 15:57:11;;;;;;;7.20;3.13;;;32.50;40.70;;;;;;6095492;23;20027;-94
2021/06/17 15:59:44;;;;;;;6.80;2.40;;;32.70;39.40;;;;;;6073044;23;20049;-92
2021/06/17 16:02:15;;;;;;;7.35;3.20;;;32.90;40.00;;;;;;6069542;23;20026;-92
2021/06/17 16:05:21;;;;;;;;;;;;;;;;;;;;;
2021/06/17 16:07:59;;;;;;;4.57;2.53;;;33.10;39.80;;;;;;6096475;23;20322;-94
2021/06/17 16:18:51;;;;;;;5.78;3.00;;;32.80;39.70;;;;;;5977420;24;20043;-94
2021/06/17 16:22:19;;;;;;;;;;;;;;;;;;;;;
2021/06/17 16:28:50;;;;;;;;;;;;;;;;;;;;;
2021/06/17 16:31:51;;;;;;;3.85;2.95;;;31.80;43.30;;;;;;5791982;24;20038;-95
2021/06/17 16:38:25;;;;;;;5.85;3.00;;;31.20;43.10;;;;;;5789275;24;20038;-96
2021/06/17 16:41:41;;;;;;;6.45;2.70;;;31.00;44.40;;;;;;5838659;24;20321;-93
2021/06/17 16:45:04;;;;;;;;;;;;;;;;;;;;;
2021/06/17 16:48:15;;;;;;;9.35;3.22;;;30.60;44.60;;;;;;5857110;24;20029;-94
2021/06/17 16:51:44;;;;;;;5.53;3.10;;;30.50;45.00;;;;;;5937448;24;20028;-94
2021/06/17 16:55:16;;;;;;;10.25;3.00;;;30.30;44.40;;;;;;5927962;24;20302;-94
2021/06/17 16:58:25;;;;;;;8.13;3.45;;;30.20;45.70;;;;;;5952069;24;20195;-94
2021/06/17 17:01:04;;;;;;;6.80;3.38;;;30.10;46.80;;;;;;5952135;24;20025;-93
2021/06/17 17:03:56;;;;;;;3.22;2.92;;;29.90;48.00;;;;;;6066245;23;20471;-94
2021/06/17 17:06:41;;;;;;;5.47;3.10;;;29.80;47.70;;;;;;6065314;23;20074;-94
2021/06/17 17:09:20;;;;;;;5.10;3.35;;;29.80;49.30;;;;;;6065111;23;20072;-94
2021/06/17 17:12:18;;;;;;;6.38;3.28;;;29.80;49.30;;;;;;6065417;23;20023;-92
2021/06/17 17:18:27;;;;;;;6.03;3.35;;;29.40;53.60;;;;;;6037987;23;20026;-93
2021/06/17 17:21:23;;;;;;;;;;;;;;;;;;;;;
2021/06/17 17:27:47;;;;;;;;;;;;;;;;;;;;;
2021/06/17 17:31:17;;;;;;;5.28;3.50;;;29.20;52.80;;;;;;5976452;24;20099;-93
2021/06/17 17:34:16;;;;;;;7.60;3.28;;;29.10;52.80;;;;;;5977700;24;20024;-94
2021/06/17 17:37:24;;;;;;;7.35;3.60;;;29.10;53.70;;;;;;5960416;24;20103;-94
2021/06/17 17:40:34;;;;;;;6.72;3.65;;;29.00;53.50;;;;;;5978799;24;20035;-94
2021/06/17 17:43:04;;;;;;;10.15;4.65;;;28.80;53.80;;;;;;6011625;23;20093;-92
2021/06/17 17:45:34;;;;;;;8.45;5.00;;;28.70;55.30;;;;;;6067998;23;20031;-93
2021/06/17 17:48:14;;;;;;;;;;;;;;;;;;;;;
2021/06/17 17:51:14;;;;;;;;;;;28.50;56.10;;;;;;5953107;24;20058;-94
2021/06/17 17:53:51;;;;;;;;;;;;;;;;;;;;;
2021/06/17 17:56:43;;;;;;;7.72;3.83;;;28.40;55.20;;;;;;5954462;24;20103;-92
2021/06/17 17:59:14;;;;;;;10.18;3.83;;;28.30;54.70;;;;;;5956877;24;20024;-90
2021/06/17 18:01:42;;;;;;;9.63;3.97;;;28.20;55.70;;;;;;5952266;24;20093;-90
2021/06/17 18:04:19;;;;;;;8.57;4.15;;;28.10;57.30;;;;;;5951614;24;20104;-88
2021/06/17 18:06:52;;;;;;;8.35;3.97;;;28.00;58.50;;;;;;5950232;24;20096;-87
2021/06/17 18:09:20;;;;;;;5.72;4.10;;;28.00;58.70;;;;;;6014202;23;20023;-88
2021/06/17 18:11:47;;;;;;;5.50;3.58;;;27.90;57.90;;;;;;6066703;23;20478;-88
2021/06/17 18:14:21;;;;;;;10.65;4.05;;;27.90;57.40;;;;;;6065012;23;20073;-89
2021/06/17 18:17:00;;;;;;;5.80;4.28;;;27.90;57.70;;;;;;6066954;23;20642;-88
2021/06/17 18:20:01;;;;;;;7.70;3.95;;;27.90;57.40;;;;;;6064384;23;20030;-87
2021/06/17 18:22:32;;;;;;;12.07;4.93;;;27.90;57.70;;;;;;6065954;23;20026;-88
2021/06/17 18:24:59;;;;;;;8.55;4.75;;;27.90;58.30;;;;;;6021229;23;20106;-88
2021/06/17 18:27:31;;;;;;;6.82;4.22;;;27.80;58.20;;;;;;6070166;23;20027;-90
2021/06/17 18:30:00;;;;;;;6.75;3.92;;;27.70;58.50;;;;;;6071342;23;20022;-88
2021/06/17 18:32:39;;;;;;;12.80;4.32;;;27.60;58.60;;;;;;6095616;23;20026;-89
2021/06/17 18:36:08;;;;;;;;;;;;;;;;;;;;;
2021/06/17 18:38:52;;;;;;;9.93;4.05;;;27.40;59.50;;;;;;5949141;24;20130;-88
2021/06/17 18:41:20;;;;;;;7.63;3.90;;;27.20;60.20;;;;;;5882858;24;20124;-90
2021/06/17 18:43:47;;;;;;;14.00;4.72;;;27.10;60.10;;;;;;5952299;24;20043;-90
2021/06/17 18:46:14;;;;;;;8.32;4.40;;;27.10;59.70;;;;;;5977567;24;20665;-89
2021/06/17 18:48:45;;;;;;;8.32;4.65;;;27.00;60.60;;;;;;5955664;24;20055;-89
2021/06/17 18:51:14;;;;;;;10.95;4.40;;;26.80;62.90;;;;;;5978287;24;20745;-87
2021/06/17 18:53:48;;;;;;;11.02;4.60;;;26.70;61.80;;;;;;5978372;24;20051;-90
2021/06/17 18:56:18;;;;;;;7.57;4.38;;;26.60;64.60;;;;;;5980044;24;20094;-92
2021/06/17 18:59:00;;;;;;;7.95;4.13;;;26.40;64.80;;;;;;5944724;24;20067;-93
2021/06/17 19:01:29;;;;;;;8.48;4.07;;;26.30;62.50;;;;;;5979245;24;20025;-92
2021/06/17 19:03:59;;;;;;;6.60;3.95;;;26.20;62.30;;;;;;5956037;24;20032;-91
2021/06/17 19:06:26;;;;;;;9.63;5.28;;;26.00;62.90;;;;;;5978665;24;20028;-90
2021/06/17 19:08:53;;;;;;;7.50;5.47;;;26.00;68.40;;;;;;5998127;23;20593;-92
2021/06/17 19:11:50;;;;;;;12.43;5.47;;;25.90;72.40;;;;;;6095545;23;20034;-92
2021/06/17 19:14:44;;;;;;;14.70;5.82;;;25.80;72.90;;;;;;5951327;24;20021;-91
2021/06/17 19:17:25;;;;;;;11.32;5.65;;;25.70;76.90;;;;;;5930306;24;20072;-91
2021/06/17 19:19:57;;;;;;;10.10;5.32;;;25.60;77.90;;;;;;5928376;24;20025;-91
2021/06/17 19:22:32;;;;;;;13.88;5.50;;;25.50;79.10;;;;;;5950466;24;20111;-90
2021/06/17 19:25:02;;;;;;;10.43;5.70;;;25.40;84.00;;;;;;5950737;24;20502;-91
2021/06/17 19:31:05;;;;;;;8.85;5.72;;;25.20;95.00;;;;;;5828119;24;20027;-92
2021/06/17 19:33:32;;;;;;;9.25;6.20;;;24.90;99.90;;;;;;5887221;24;20029;-90
2021/06/17 19:35:59;;;;;;;14.75;5.78;;;24.70;99.90;;;;;;5950432;24;20358;-93
2021/06/17 19:38:49;;;;;;;9.52;5.55;;;24.50;99.90;;;;;;5951900;24;20171;-92
2021/06/17 19:41:17;;;;;;;9.80;5.57;;;24.40;99.70;;;;;;5928445;24;20093;-91
2021/06/17 19:44:11;;;;;;;7.95;5.57;;;24.30;99.90;;;;;;5928433;24;20345;-91
2021/06/17 19:46:38;;;;;;;6.95;4.70;;;24.30;99.90;;;;;;5927186;24;20059;-93
2021/06/17 19:49:07;;;;;;;6.38;4.82;;;24.20;97.30;;;;;;5950342;24;20354;-93
2021/06/17 19:51:34;;;;;;;11.07;6.65;;;24.20;95.80;;;;;;6059091;23;20023;-91
2021/06/17 19:54:10;;;;;;;21.17;6.50;;;24.20;99.90;;;;;;6066152;23;20026;-91
2021/06/17 19:57:06;;;;;;;20.27;7.35;;;24.00;99.90;;;;;;6041493;23;20363;-90
2021/06/17 19:59:35;;;;;;;14.00;6.40;;;23.90;99.90;;;;;;6045927;23;20046;-91
2021/06/17 20:02:40;;;;;;;8.60;6.60;;;23.90;99.90;;;;;;6044484;23;20043;-92
2021/06/17 20:05:16;;;;;;;7.88;6.50;;;23.70;99.90;;;;;;6060150;23;20030;-92
2021/06/17 20:07:43;;;;;;;9.32;6.50;;;23.60;99.90;;;;;;6066700;23;20031;-91
2021/06/17 20:10:11;;;;;;;13.52;7.03;;;23.60;99.90;;;;;;6040524;23;20027;-93
2021/06/17 20:12:43;;;;;;;8.60;6.53;;;23.50;99.90;;;;;;6067564;23;20118;-93
2021/06/17 20:15:11;;;;;;;9.35;6.70;;;23.50;99.90;;;;;;6066884;23;20058;-92
2021/06/17 20:17:46;;;;;;;10.27;6.57;;;23.50;99.90;;;;;;6040813;23;20022;-93
2021/06/17 20:20:16;;;;;;;11.27;6.13;;;23.50;99.90;;;;;;6041302;23;20019;-92
2021/06/17 20:22:47;;;;;;;7.65;6.03;;;23.40;99.90;;;;;;6070359;23;20055;-95
2021/06/17 20:25:22;;;;;;;10.77;6.15;;;23.30;99.90;;;;;;6050283;23;20023;-91
2021/06/17 20:27:57;;;;;;;9.68;6.82;;;23.20;99.90;;;;;;6046013;23;20026;-91
2021/06/17 20:30:26;;;;;;;25.63;6.60;;;23.20;99.90;;;;;;6072389;23;20023;-90
2021/06/17 20:32:55;;;;;;;11.40;6.70;;;23.20;99.90;;;;;;6098458;23;20022;-89
2021/06/17 20:35:24;;;;;;;12.80;7.40;;;23.20;99.90;;;;;;6101581;23;20474;-91
2021/06/17 20:37:52;;;;;;;8.35;6.28;;;23.10;99.90;;;;;;6082327;23;20026;-88
2021/06/17 20:40:20;;;;;;;13.50;7.47;;;23.10;99.90;;;;;;6099283;23;20402;-92
2021/06/17 20:42:50;;;;;;;10.07;6.80;;;23.00;99.90;;;;;;6074255;23;20076;-91
2021/06/17 20:45:22;;;;;;;7.65;6.85;;;23.00;99.90;;;;;;6072115;23;20023;-91
2021/06/17 20:47:58;;;;;;;8.85;6.57;;;22.80;99.90;;;;;;6072814;23;20085;-89
2021/06/17 20:50:25;;;;;;;10.32;6.50;;;22.70;99.90;;;;;;6097297;23;20319;-91
2021/06/17 20:52:56;;;;;;;12.15;6.97;;;22.70;99.90;;;;;;6071338;23;20170;-90
2021/06/17 20:55:25;;;;;;;11.32;7.15;;;22.60;99.90;;;;;;6048139;23;20022;-90
2021/06/17 20:57:55;;;;;;;12.27;6.65;;;22.60;99.90;;;;;;6071702;23;20062;-91
2021/06/17 21:00:22;;;;;;;10.43;7.07;;;22.50;99.90;;;;;;6095086;23;20027;-90
2021/06/17 21:02:49;;;;;;;9.15;6.60;;;22.40;99.90;;;;;;6069801;23;20058;-91
2021/06/17 21:05:16;;;;;;;10.50;6.50;;;22.40;99.90;;;;;;6094819;23;20049;-91
2021/06/17 21:07:43;;;;;;;10.82;6.78;;;22.20;99.90;;;;;;6069931;23;20102;-91
2021/06/17 21:10:17;;;;;;;9.60;6.07;;;22.20;99.90;;;;;;6069914;23;20014;-92
2021/06/17 21:12:45;;;;;;;10.63;6.32;;;22.10;99.90;;;;;;6070664;23;20022;-89
2021/06/17 21:15:13;;;;;;;10.68;6.05;;;22.00;99.90;;;;;;6096092;23;20022;-90
2021/06/17 21:17:40;;;;;;;12.77;6.20;;;21.90;99.90;;;;;;6046876;23;20030;-88
2021/06/17 21:20:14;;;;;;;12.02;6.60;;;21.90;99.90;;;;;;6069233;23;20026;-91
2021/06/17 21:22:42;;;;;;;12.50;5.95;;;21.90;99.90;;;;;;6070771;23;20022;-89
2021/06/17 21:25:10;;;;;;;7.60;6.35;;;22.00;99.90;;;;;;6070625;23;20158;-89
2021/06/17 21:27:37;;;;;;;8.77;5.95;;;22.00;99.90;;;;;;6071400;23;20023;-89
2021/06/17 21:30:05;;;;;;;11.55;6.70;;;22.00;99.90;;;;;;6074711;23;20022;-90
2021/06/17 21:32:32;;;;;;;8.52;5.60;;;21.90;99.90;;;;;;6076952;23;20316;-89
2021/06/17 21:34:59;;;;;;;9.85;5.90;;;21.90;99.90;;;;;;6098291;23;20018;-89
2021/06/17 21:37:26;;;;;;;8.32;6.25;;;21.80;99.90;;;;;;6097823;23;20026;-90
2021/06/17 21:39:53;;;;;;;13.25;6.22;;;21.80;99.90;;;;;;6096509;23;20029;-90
2021/06/17 21:42:19;;;;;;;9.98;6.57;;;21.70;99.90;;;;;;6094941;23;20384;-90
2021/06/17 21:44:49;;;;;;;10.93;6.30;;;21.60;99.90;;;;;;6070525;23;20094;-88
2021/06/17 21:47:16;;;;;;;9.57;6.00;;;21.60;99.90;;;;;;6095609;23;20097;-89
2021/06/17 21:49:45;;;;;;;7.93;5.60;;;21.60;99.90;;;;;;6095405;23;20022;-91
2021/06/17 21:52:15;;;;;;;12.65;6.10;;;21.60;99.90;;;;;;6095621;23;20045;-92
2021/06/17 21:54:42;;;;;;;6.38;5.32;;;21.50;99.90;;;;;;6095794;23;20058;-90
2021/06/17 21:57:11;;;;;;;8.25;5.72;;;21.50;99.90;;;;;;6071531;23;20098;-91
2021/06/17 21:59:39;;;;;;;6.63;6.03;;;21.40;99.90;;;;;;6096069;23;20030;-92
2021/06/17 22:02:06;;;;;;;9.73;6.10;;;21.40;99.90;;;;;;6070171;23;20093;-92
2021/06/17 22:04:33;;;;;;;13.13;6.40;;;21.30;99.90;;;;;;6095698;23;20504;-91
2021/06/17 22:07:00;;;;;;;10.10;5.57;;;21.30;99.90;;;;;;6070871;23;20054;-90
2021/06/17 22:09:30;;;;;;;7.43;5.53;;;21.20;99.90;;;;;;6070474;23;20322;-90
2021/06/17 22:11:57;;;;;;;8.48;5.45;;;21.20;99.90;;;;;;6095670;23;20101;-92
2021/06/17 22:14:23;;;;;;;13.52;5.95;;;21.20;99.90;;;;;;6095083;23;20054;-90
2021/06/17 22:16:51;;;;;;;7.28;5.22;;;21.10;99.90;;;;;;6095893;23;20034;-91
2021/06/17 22:19:18;;;;;;;7.10;5.32;;;21.10;99.90;;;;;;6070576;23;20422;-90
2021/06/17 22:21:45;;;;;;;9.90;5.47;;;21.10;99.90;;;;;;6095338;23;20094;-91
2021/06/17 22:24:12;;;;;;;10.77;7.05;;;21.10;99.90;;;;;;6095149;23;20027;-91
2021/06/17 22:26:42;;;;;;;9.13;6.05;;;21.10;99.90;;;;;;6070468;23;20050;-91
2021/06/17 22:29:09;;;;;;;9.05;6.05;;;21.10;99.90;;;;;;6070797;23;20046;-91
2021/06/17 22:31:35;;;;;;;12.20;5.63;;;21.20;99.90;;;;;;6042256;23;20094;-91
2021/06/17 22:34:05;;;;;;;10.68;6.10;;;21.20;99.90;;;;;;6066416;23;20259;-90
2021/06/17 22:36:32;;;;;;;7.22;5.75;;;21.20;99.90;;;;;;6066712;23;20109;-91
2021/06/17 22:38:59;;;;;;;15.90;6.60;;;21.20;99.90;;;;;;6065187;23;20466;-90
2021/06/17 22:41:25;;;;;;;13.32;6.00;;;21.20;99.90;;;;;;6065671;23;20038;-91
2021/06/17 22:43:52;;;;;;;9.70;5.60;;;21.20;99.90;;;;;;6066504;23;20033;-92
2021/06/17 22:46:19;;;;;;;11.73;5.38;;;21.10;99.90;;;;;;6066897;23;20464;-91
2021/06/17 22:48:48;;;;;;;9.25;5.55;;;21.00;99.90;;;;;;6065252;23;20449;-92
2021/06/17 22:51:19;;;;;;;7.47;5.88;;;21.00;99.90;;;;;;6064175;23;20094;-89
2021/06/17 22:53:48;;;;;;;9.63;6.07;;;21.00;99.90;;;;;;6066928;23;20363;-90
2021/06/17 22:56:18;;;;;;;12.48;6.63;;;21.00;99.90;;;;;;6066319;23;20098;-91
2021/06/17 22:58:45;;;;;;;10.07;5.90;;;20.90;99.90;;;;;;6065068;23;20094;-90
2021/06/17 23:01:12;;;;;;;15.73;6.30;;;20.80;99.90;;;;;;6065445;23;20053;-91
2021/06/17 23:03:39;;;;;;;13.55;5.80;;;20.60;99.90;;;;;;6066396;23;20323;-90
2021/06/17 23:06:06;;;;;;;14.13;5.85;;;20.50;99.90;;;;;;6066576;23;20326;-91
2021/06/17 23:08:33;;;;;;;7.30;5.60;;;20.50;99.90;;;;;;6068103;23;20074;-90
2021/06/17 23:11:03;;;;;;;9.13;5.63;;;20.40;99.90;;;;;;6067148;23;20451;-91
2021/06/17 23:13:30;;;;;;;15.82;5.97;;;20.40;99.90;;;;;;6064935;23;20422;-91
2021/06/17 23:15:57;;;;;;;8.38;5.68;;;20.40;99.90;;;;;;6066311;23;20019;-90
2021/06/17 23:18:24;;;;;;;8.27;5.38;;;20.40;99.90;;;;;;6064575;23;20303;-91
2021/06/17 23:20:51;;;;;;;9.65;5.97;;;20.40;99.90;;;;;;6064828;23;20065;-91
2021/06/17 23:23:20;;;;;;;11.15;6.38;;;20.40;99.90;;;;;;6065755;23;20023;-90
2021/06/17 23:25:47;;;;;;;15.43;6.68;;;20.50;99.90;;;;;;6064028;23;20030;-90
2021/06/17 23:28:16;;;;;;;9.70;6.68;;;20.40;99.90;;;;;;6066399;23;20081;-91
2021/06/17 23:30:47;;;;;;;12.48;7.13;;;20.40;99.90;;;;;;6072430;23;20414;-90
2021/06/17 23:33:16;;;;;;;11.48;6.60;;;20.30;99.90;;;;;;6098011;23;20053;-90
2021/06/17 23:35:43;;;;;;;9.85;6.10;;;20.30;99.90;;;;;;6101498;23;20026;-91
2021/06/17 23:38:12;;;;;;;12.18;6.57;;;20.30;99.90;;;;;;6094424;23;20097;-90
2021/06/17 23:40:39;;;;;;;11.73;6.45;;;20.20;99.90;;;;;;6094308;23;20106;-89
2021/06/17 23:43:14;;;;;;;14.02;6.80;;;20.10;99.90;;;;;;6093726;23;20030;-90
2021/06/17 23:45:42;;;;;;;10.20;6.90;;;20.10;99.90;;;;;;6094545;23;20026;-91
2021/06/17 23:48:09;;;;;;;9.77;6.05;;;20.00;99.90;;;;;;6069379;23;20049;-90
2021/06/17 23:50:38;;;;;;;9.75;5.90;;;19.90;99.90;;;;;;6068978;23;20105;-91
2021/06/17 23:53:10;;;;;;;15.02;5.50;;;19.90;99.90;;;;;;6069517;23;20158;-89
2021/06/17 23:55:37;;;;;;;9.85;5.80;;;19.80;99.90;;;;;;6094729;23;20066;-92
2021/06/17 23:58:05;;;;;;;8.38;6.35;;;19.80;99.90;;;;;;6045464;23;20073;-89
